KVDI/VDI METAR and TAF weather

Enter ICAO airport designator
Station Type Date Time Source
KVDI METAR 2021/08/01 17:35 UTC NOAA

KVDI 011735Z AUTO 30009G14KT 280V340 10SM SCT034 SCT120 33/24 A2998 RMK AO2


Station Type Date Time Source
KVDI Decoded METAR 2021/08/01 17:35 UTC NOAA

Vidalia, Vidalia Municipal Airport, GA, United States (KVDI) 32-11-33N 082-22-19W
Aug 01, 2021 - 01:35 PM EDT / 2021.08.01 1735 UTC
Wind: from the WNW (300 degrees) at 10 MPH (9 KT) gusting to 16 MPH (14 KT) (direction variable):0
Visibility: 10 mile(s):0
Sky conditions: partly cloudy
Temperature: 91 F (33 C)
Heat index: 101.5 F (38.6 C):1
Dew Point: 75 F (24 C)
Relative Humidity: 59%
Pressure (altimeter): 29.98 in. Hg (1015 hPa)
ob: KVDI 011735Z AUTO 30009G14KT 280V340 10SM SCT034 SCT120 33/24 A2998 RMK AO2
cycle: 17

Station Type Date Time Source
KVDI TAF UTC NOAA

Error!

Example: see airport list